Terminal Aerodrome Forecast
Issued by NWS Houston/Galveston TX

Home | Current Version | Previous Version | Text Only | Print | Product List | Glossary On
Versions: 1 2 3 4 5 6 7 8 9 10 11 12 13 14 15 16 17 18 19 20 21 22 23 24 25 26 27 28 29 30 31 32
000
FTUS44 KHGX 192331
TAFHOU
TAF
KHOU 192331Z 2000/2024 19007KT P6SM BKN021 OVC035
     FM200200 20004KT 4SM BR BKN010
     FM200600 VRB04KT 2SM BR OVC007
      TEMPO 2009/2012 1/2SM FG OVC002
     FM201500 22005KT 4SM BR BKN007 OVC012
     FM201800 22006KT P6SM SCT100=

USA.gov is the U.S. government's official web portal to all federal, state and local government web resources and services.